createdAt,value
2019-04-30T00:56:06.414Z,5.40
2019-04-30T00:59:10.657Z,5.57
2019-04-30T01:02:32.681Z,6.13
2019-04-30T01:05:39.540Z,6.03
2019-04-30T01:08:42.165Z,5.53
2019-04-30T01:11:48.085Z,5.80
2019-04-30T01:14:51.218Z,5.93
2019-04-30T01:17:54.927Z,6.07
2019-04-30T01:20:58.777Z,5.80
2019-04-30T01:24:03.179Z,5.53
2019-04-30T01:27:10.455Z,5.67
2019-04-30T01:30:13.411Z,5.80
2019-04-30T01:33:19.179Z,6.00
2019-04-30T01:36:22.978Z,6.00
2019-04-30T01:39:30.036Z,5.30
2019-04-30T01:42:32.194Z,5.93
2019-04-30T01:45:35.873Z,5.67
2019-04-30T01:48:43.489Z,5.70
2019-04-30T01:51:45.006Z,5.63
2019-04-30T01:54:49.036Z,5.90
2019-04-30T01:58:00.905Z,5.60
2019-04-30T02:01:15.679Z,5.97
2019-04-30T02:04:19.654Z,5.27
2019-04-30T02:07:23.350Z,5.70
2019-04-30T02:10:28.569Z,5.20
2019-04-30T02:13:34.575Z,5.77
2019-04-30T02:16:39.459Z,5.23
2019-04-30T02:19:54.054Z,5.57
2019-04-30T02:22:48.949Z,5.03
2019-04-30T02:25:52.621Z,5.93
2019-04-30T02:28:56.502Z,5.63
2019-04-30T02:32:00.635Z,5.43
2019-04-30T02:35:22.154Z,5.90
2019-04-30T02:38:30.258Z,5.67
2019-04-30T02:41:34.289Z,5.67
2019-04-30T02:44:40.714Z,6.10
2019-04-30T02:47:44.862Z,5.53
2019-04-30T02:50:50.105Z,6.23
2019-04-30T02:54:15.090Z,5.80
2019-04-30T02:57:22.880Z,5.63
2019-04-30T03:00:26.444Z,5.60
2019-04-30T03:03:30.111Z,5.33
2019-04-30T03:06:34.740Z,5.80
2019-04-30T03:09:39.368Z,5.63
2019-04-30T03:12:43.109Z,6.70
2019-04-30T03:15:49.352Z,5.63
2019-04-30T03:19:02.804Z,6.07
2019-04-30T03:22:10.214Z,5.57
2019-04-30T03:25:14.685Z,6.13
2019-04-30T03:28:20.219Z,5.73
2019-04-30T03:31:25.047Z,5.50
2019-04-30T03:34:32.677Z,5.70
2019-04-30T03:37:34.328Z,5.90
2019-04-30T03:40:40.525Z,5.63
2019-04-30T03:43:43.752Z,5.50
2019-04-30T03:46:49.782Z,6.10
2019-04-30T03:49:52.849Z,6.00
2019-04-30T03:52:56.499Z,5.63
2019-04-30T03:56:01.421Z,5.90
2019-04-30T03:59:05.367Z,5.40
2019-04-30T04:02:26.156Z,5.53
2019-04-30T04:05:44.123Z,5.60
2019-04-30T04:08:53.542Z,5.60
2019-04-30T04:11:59.993Z,6.20
2019-04-30T04:15:04.240Z,5.78
2019-04-30T04:18:10.627Z,5.70
2019-04-30T04:21:16.943Z,5.50
2019-04-30T04:24:20.343Z,5.70
2019-04-30T04:27:24.544Z,5.60
2019-04-30T04:30:29.757Z,5.67
2019-04-30T04:33:33.915Z,5.45
2019-04-30T04:36:42.947Z,6.03
2019-04-30T04:39:43.109Z,6.17
2019-04-30T04:42:49.281Z,5.20
2019-04-30T04:45:52.643Z,5.40
2019-04-30T04:48:56.294Z,6.00
2019-04-30T04:52:00.313Z,5.43
2019-04-30T04:55:04.335Z,6.33
2019-04-30T04:58:12.415Z,5.97
2019-04-30T05:01:13.494Z,5.80
2019-04-30T05:04:19.728Z,5.80
2019-04-30T05:07:22.797Z,5.80
2019-04-30T05:10:26.479Z,5.67
2019-04-30T05:13:30.221Z,5.97
2019-04-30T05:16:34.014Z,5.73
2019-04-30T05:19:38.531Z,5.83
2019-04-30T05:22:42.457Z,5.40
2019-04-30T05:25:46.683Z,6.20
2019-04-30T05:28:52.792Z,6.03
2019-04-30T05:31:56.005Z,5.87
2019-04-30T05:34:59.717Z,5.70
2019-04-30T05:38:03.380Z,6.80
2019-04-30T05:41:09.183Z,5.97
2019-04-30T05:44:12.769Z,5.63
2019-04-30T05:47:16.538Z,6.40
2019-04-30T05:50:20.537Z,5.80
2019-04-30T05:53:24.310Z,6.40
2019-04-30T05:56:30.235Z,6.23
2019-04-30T05:59:33.493Z,5.53
2019-04-30T06:02:39.907Z,6.95
2019-04-30T06:05:44.076Z,5.93
2019-04-30T06:09:06.283Z,6.30
2019-04-30T06:12:13.013Z,6.40
2019-04-30T06:15:24.248Z,6.60
2019-04-30T06:18:28.686Z,7.27
2019-04-30T06:21:32.594Z,7.80
2019-04-30T06:24:36.590Z,6.87
2019-04-30T06:27:40.837Z,7.40
2019-04-30T06:30:45.059Z,7.03
2019-04-30T06:33:48.927Z,6.90
2019-04-30T06:36:54.128Z,7.33
2019-04-30T06:39:59.156Z,5.67
2019-04-30T06:43:02.938Z,6.40
2019-04-30T06:46:06.609Z,6.97
2019-04-30T06:49:10.518Z,5.13
2019-04-30T06:52:20.609Z,4.80
2019-04-30T06:55:19.751Z,5.83
2019-04-30T06:58:23.462Z,6.57
2019-04-30T07:01:29.040Z,5.07
2019-04-30T07:04:33.265Z,4.73
2019-04-30T07:07:41.531Z,5.50
2019-04-30T07:10:53.153Z,6.43
2019-04-30T07:13:52.141Z,4.77
2019-04-30T07:16:55.630Z,5.03
2019-04-30T07:19:59.811Z,5.77
2019-04-30T07:23:03.569Z,5.83
2019-04-30T07:26:09.106Z,7.23
2019-04-30T07:29:12.931Z,5.33
2019-04-30T07:32:19.526Z,4.50
2019-04-30T07:35:22.194Z,4.57
2019-04-30T07:38:25.945Z,4.83
2019-04-30T07:41:31.206Z,4.50
2019-04-30T07:44:36.685Z,4.37
2019-04-30T07:47:40.489Z,4.67
2019-04-30T07:50:44.912Z,4.83
2019-04-30T07:53:51.737Z,4.57
2019-04-30T07:56:55.595Z,4.30
2019-04-30T08:00:00.495Z,4.80
2019-04-30T08:03:12.314Z,4.87
2019-04-30T08:06:18.910Z,4.17
2019-04-30T08:09:22.363Z,5.00
2019-04-30T08:12:31.801Z,6.17
2019-04-30T08:15:32.560Z,6.70
2019-04-30T08:18:36.270Z,4.70
2019-04-30T08:21:40.002Z,5.30
2019-04-30T08:24:43.676Z,5.73
2019-04-30T08:27:49.110Z,7.17
2019-04-30T08:30:52.787Z,5.40
2019-04-30T08:33:56.502Z,5.97
2019-04-30T08:37:12.709Z,6.57
2019-04-30T08:40:06.330Z,6.27
2019-04-30T08:43:10.035Z,7.10
2019-04-30T08:46:14.183Z,4.50
2019-04-30T08:49:19.274Z,3.90
2019-04-30T08:52:23.558Z,4.10
2019-04-30T08:55:27.377Z,3.93
2019-04-30T08:58:31.074Z,4.67
2019-04-30T09:01:35.101Z,4.50
2019-04-30T09:04:38.868Z,4.63
2019-04-30T09:07:42.706Z,3.97
2019-04-30T09:10:46.442Z,3.90
2019-04-30T09:13:50.358Z,3.33
2019-04-30T09:16:54.057Z,4.50
2019-04-30T09:19:58.834Z,4.70
2019-04-30T09:23:02.901Z,4.60
2019-04-30T09:26:08.547Z,3.77
2019-04-30T09:29:12.042Z,3.93
2019-04-30T09:32:15.728Z,3.62
2019-04-30T09:35:19.677Z,3.73
2019-04-30T09:38:23.414Z,3.40
2019-04-30T09:41:28.795Z,3.33
2019-04-30T09:44:32.588Z,4.17
2019-04-30T09:47:36.281Z,3.50
2019-04-30T09:50:40.225Z,3.53
2019-04-30T09:53:55.649Z,2.93
2019-04-30T09:56:52.431Z,3.00
2019-04-30T09:59:54.820Z,3.33
2019-04-30T10:02:59.900Z,4.37
2019-04-30T10:06:03.997Z,3.77
2019-04-30T10:09:09.634Z,3.67
2019-04-30T10:12:14.866Z,3.90
2019-04-30T10:15:37.750Z,3.63
2019-04-30T10:18:41.885Z,3.30
2019-04-30T10:21:45.973Z,4.27
2019-04-30T10:24:49.798Z,4.83
2019-04-30T10:27:53.530Z,3.40
2019-04-30T10:30:57.176Z,3.12
2019-04-30T10:34:00.966Z,3.43
2019-04-30T10:37:04.951Z,3.40
2019-04-30T10:40:10.356Z,3.33
2019-04-30T10:43:14.164Z,3.77
2019-04-30T10:46:17.999Z,5.53
2019-04-30T10:49:21.700Z,3.73
2019-04-30T10:52:25.632Z,3.23
2019-04-30T10:55:31.162Z,3.75
2019-04-30T10:58:34.947Z,3.70
2019-04-30T11:01:39.192Z,3.50
2019-04-30T11:04:43.495Z,4.00
2019-04-30T11:07:47.204Z,5.47
2019-04-30T11:10:51.677Z,4.17
2019-04-30T11:13:55.585Z,4.07
2019-04-30T11:17:00.013Z,3.40
2019-04-30T11:20:04.355Z,3.80
2019-04-30T11:23:14.464Z,3.73
2019-04-30T11:26:14.239Z,3.30
2019-04-30T11:29:18.618Z,4.27
2019-04-30T11:32:24.132Z,5.47
2019-04-30T11:35:29.681Z,4.10
2019-04-30T11:38:33.748Z,6.63
2019-04-30T11:41:39.146Z,6.23
2019-04-30T11:44:42.884Z,8.07
2019-04-30T11:47:53.346Z,5.80
2019-04-30T11:50:52.051Z,5.80
2019-04-30T11:53:55.958Z,5.43
2019-04-30T11:56:59.973Z,5.87
2019-04-30T12:00:04.896Z,3.70
2019-04-30T12:03:09.109Z,3.47
2019-04-30T12:06:12.850Z,4.33
2019-04-30T12:09:50.998Z,4.07
2019-04-30T12:12:54.715Z,5.70
2019-04-30T12:15:59.472Z,4.43
2019-04-30T12:19:03.219Z,3.93
2019-04-30T12:22:06.944Z,4.47
2019-04-30T12:25:10.874Z,3.73
2019-04-30T12:28:14.534Z,4.13
2019-04-30T12:31:18.739Z,4.97
2019-04-30T12:34:22.494Z,3.70
2019-04-30T12:37:26.162Z,3.73
2019-04-30T12:40:32.260Z,3.83
2019-04-30T12:43:35.347Z,3.97
2019-04-30T12:46:38.982Z,3.80
2019-04-30T12:49:52.489Z,4.03
2019-04-30T12:53:09.475Z,3.93
2019-04-30T12:56:29.476Z,3.43
2019-04-30T12:59:33.118Z,3.27
2019-04-30T13:02:36.818Z,5.90
2019-04-30T13:05:40.462Z,3.87
2019-04-30T13:08:44.540Z,3.50
2019-04-30T13:11:50.791Z,6.13
2019-04-30T13:14:54.898Z,3.67
2019-04-30T13:17:59.237Z,3.33
2019-04-30T13:21:03.012Z,4.00
2019-04-30T13:24:06.897Z,3.60
2019-04-30T13:27:10.654Z,3.40
2019-04-30T13:30:18.603Z,3.23
2019-04-30T13:33:40.803Z,3.77
2019-04-30T13:36:44.701Z,4.40
2019-04-30T13:39:56.121Z,4.43
2019-04-30T13:43:00.353Z,3.50
2019-04-30T13:46:04.129Z,3.63
2019-04-30T13:49:07.880Z,3.60
2019-04-30T13:52:11.658Z,3.40
2019-04-30T13:55:16.269Z,3.13
2019-04-30T13:58:19.961Z,3.13
2019-04-30T14:01:23.871Z,3.10
2019-04-30T14:04:39.042Z,3.17
2019-04-30T14:08:00.551Z,3.07
2019-04-30T14:11:04.933Z,3.40
2019-04-30T14:14:08.647Z,3.67
2019-04-30T14:17:12.532Z,3.70
2019-04-30T14:20:16.264Z,2.90
2019-04-30T14:23:20.221Z,4.47
2019-04-30T14:26:24.139Z,4.67
2019-04-30T14:29:28.437Z,3.10
2019-04-30T14:32:33.626Z,3.33
2019-04-30T14:35:38.594Z,3.23
2019-04-30T14:38:42.453Z,3.93
2019-04-30T14:41:48.963Z,3.40
2019-04-30T14:44:59.402Z,3.83
2019-04-30T14:48:08.596Z,3.53
2019-04-30T14:51:13.039Z,3.37
2019-04-30T14:54:25.766Z,3.40
2019-04-30T14:57:51.108Z,3.80
2019-04-30T15:01:13.457Z,3.50
2019-04-30T15:04:20.343Z,3.70
2019-04-30T15:07:22.733Z,3.17
2019-04-30T15:10:26.691Z,3.50
2019-04-30T15:13:30.390Z,3.93
2019-04-30T15:16:34.176Z,3.63
2019-04-30T15:19:37.855Z,3.33
2019-04-30T15:22:48.798Z,3.67
2019-04-30T15:25:52.613Z,3.55
2019-04-30T15:28:57.969Z,3.70
2019-04-30T15:32:02.247Z,3.93
2019-04-30T15:35:05.976Z,3.80
2019-04-30T15:38:09.990Z,3.60
2019-04-30T15:41:13.710Z,3.30
2019-04-30T15:44:17.462Z,3.50
2019-04-30T15:47:22.602Z,3.37
2019-04-30T15:50:26.482Z,3.53
2019-04-30T15:53:30.154Z,3.23
2019-04-30T15:56:37.075Z,3.07
2019-04-30T15:59:43.235Z,3.17
2019-04-30T16:02:57.301Z,3.20
2019-04-30T16:06:03.340Z,3.43
2019-04-30T16:09:09.506Z,3.00
2019-04-30T16:12:22.984Z,3.40
2019-04-30T16:15:26.702Z,3.53
2019-04-30T16:18:40.372Z,3.57
2019-04-30T16:21:44.070Z,3.70
2019-04-30T16:24:49.501Z,3.10
2019-04-30T16:27:53.250Z,3.13
2019-04-30T16:30:57.046Z,3.37
2019-04-30T16:34:01.030Z,3.30
2019-04-30T16:37:04.975Z,3.30
2019-04-30T16:40:10.418Z,4.00
2019-04-30T16:43:14.330Z,3.63
2019-04-30T16:46:18.012Z,3.30
2019-04-30T16:49:21.987Z,3.30
2019-04-30T16:52:25.661Z,3.43
2019-04-30T16:55:29.394Z,3.63
2019-04-30T16:58:52.186Z,3.57
2019-04-30T17:01:57.754Z,3.30
2019-04-30T17:05:19.832Z,2.97
2019-04-30T17:08:54.897Z,3.77
2019-04-30T17:12:02.911Z,2.90
2019-04-30T17:15:15.533Z,3.07
2019-04-30T17:18:19.372Z,4.97
2019-04-30T17:21:23.082Z,4.13
2019-04-30T17:24:26.910Z,3.73
2019-04-30T17:27:30.605Z,3.90
2019-04-30T17:30:34.803Z,3.63
2019-04-30T17:33:38.559Z,5.57
2019-04-30T17:36:42.238Z,4.90
2019-04-30T17:39:46.074Z,4.50
2019-04-30T17:42:49.762Z,4.17
2019-04-30T17:45:53.514Z,3.35
2019-04-30T17:48:58.851Z,3.10
2019-04-30T17:52:02.638Z,3.10
2019-04-30T17:55:07.039Z,3.20
2019-04-30T17:58:10.878Z,3.50
2019-04-30T18:01:14.814Z,3.53
2019-04-30T18:04:21.880Z,3.43
2019-04-30T18:07:24.461Z,3.43
2019-04-30T18:10:28.373Z,3.30
2019-04-30T18:13:32.020Z,3.50
2019-04-30T18:16:35.785Z,3.93
2019-04-30T18:19:49.743Z,3.90
2019-04-30T18:23:00.221Z,3.60
2019-04-30T18:26:09.199Z,4.00
2019-04-30T18:29:12.891Z,3.37
2019-04-30T18:32:16.786Z,3.47
2019-04-30T18:35:20.515Z,3.60
2019-04-30T18:38:24.347Z,3.80
2019-04-30T18:41:28.109Z,4.33
2019-04-30T18:44:31.926Z,4.00
2019-04-30T18:47:35.611Z,3.77
2019-04-30T18:50:39.354Z,3.93
2019-04-30T18:53:43.123Z,4.10
2019-04-30T18:56:48.839Z,3.80
2019-04-30T18:59:52.208Z,3.80
2019-04-30T19:02:56.002Z,4.00
2019-04-30T19:06:04.037Z,4.23
2019-04-30T19:09:29.507Z,4.37
2019-04-30T19:12:50.626Z,4.53
2019-04-30T19:16:25.518Z,4.13
2019-04-30T19:19:36.846Z,5.30
2019-04-30T19:22:40.714Z,4.67
2019-04-30T19:25:44.454Z,5.30
2019-04-30T19:28:49.314Z,5.27
2019-04-30T19:31:53.225Z,5.13
2019-04-30T19:34:59.004Z,5.40
2019-04-30T19:38:02.363Z,4.90
2019-04-30T19:41:06.059Z,5.20
2019-04-30T19:44:09.731Z,4.37
2019-04-30T19:47:13.498Z,4.80
2019-04-30T19:50:19.132Z,4.40
2019-04-30T19:53:22.709Z,5.03
2019-04-30T19:56:26.431Z,4.93
2019-04-30T19:59:30.140Z,5.20
2019-04-30T20:02:33.853Z,4.87
2019-04-30T20:05:39.378Z,5.40
2019-04-30T20:08:42.977Z,5.20
2019-04-30T20:11:49.137Z,5.80
2019-04-30T20:14:52.118Z,6.00
2019-04-30T20:17:55.830Z,6.13
2019-04-30T20:21:01.446Z,6.57
2019-04-30T20:24:05.838Z,7.13
2019-04-30T20:27:10.114Z,6.53
2019-04-30T20:30:14.504Z,6.73
2019-04-30T20:33:19.017Z,6.13
2019-04-30T20:36:22.901Z,5.70
2019-04-30T20:39:35.040Z,6.93
2019-04-30T20:42:40.163Z,6.53
2019-04-30T20:45:43.902Z,6.30
2019-04-30T20:48:49.161Z,6.33
2019-04-30T20:51:55.872Z,6.03
2019-04-30T20:54:58.366Z,6.10
2019-04-30T20:58:02.138Z,6.97
2019-04-30T21:01:06.822Z,6.73
2019-04-30T21:04:11.054Z,6.40
2019-04-30T21:07:14.786Z,6.87
2019-04-30T21:10:19.955Z,6.83
2019-04-30T21:13:23.861Z,7.10
2019-04-30T21:16:27.570Z,6.67
2019-04-30T21:19:31.323Z,6.72
2019-04-30T21:22:35.110Z,6.37
2019-04-30T21:25:38.873Z,6.97
2019-04-30T21:28:42.659Z,6.40
2019-04-30T21:32:04.135Z,5.90
2019-04-30T21:35:26.926Z,6.17
2019-04-30T21:38:31.146Z,5.47
2019-04-30T21:41:34.882Z,6.13
2019-04-30T21:44:38.533Z,5.80
2019-04-30T21:47:42.225Z,6.00
2019-04-30T21:50:46.370Z,5.90
2019-04-30T21:53:50.444Z,6.03
2019-04-30T21:56:54.234Z,6.20
2019-04-30T21:59:58.771Z,6.20
2019-04-30T22:03:03.934Z,6.20
2019-04-30T22:06:08.420Z,5.77
2019-04-30T22:09:13.606Z,6.23
2019-04-30T22:12:19.028Z,6.47
2019-04-30T22:15:22.956Z,7.40
2019-04-30T22:18:26.723Z,7.83
2019-04-30T22:21:30.543Z,7.20
2019-04-30T22:24:34.249Z,7.23
2019-04-30T22:27:37.945Z,7.57
2019-04-30T22:30:41.662Z,6.87
2019-04-30T22:33:45.313Z,6.53
2019-04-30T22:36:49.848Z,6.30
2019-04-30T22:39:59.421Z,6.43
2019-04-30T22:43:03.244Z,6.77
2019-04-30T22:46:11.633Z,6.90
2019-04-30T22:49:15.315Z,6.07
2019-04-30T22:52:21.802Z,7.13
2019-04-30T22:55:24.654Z,6.50
2019-04-30T22:58:28.378Z,6.40
2019-04-30T23:01:56.046Z,6.37
2019-04-30T23:05:00.267Z,7.03
2019-04-30T23:08:04.038Z,6.67
2019-04-30T23:11:07.713Z,6.63
2019-04-30T23:14:11.422Z,5.90
2019-04-30T23:17:15.587Z,5.33
2019-04-30T23:20:19.280Z,5.87
2019-04-30T23:23:23.177Z,5.80
2019-04-30T23:26:26.870Z,5.90
2019-04-30T23:29:30.509Z,5.90
2019-04-30T23:32:34.471Z,6.20
2019-04-30T23:35:38.169Z,6.33
2019-04-30T23:38:42.033Z,6.40
2019-04-30T23:41:45.713Z,5.60
2019-04-30T23:44:49.388Z,6.23
2019-04-30T23:47:53.034Z,6.37
2019-04-30T23:50:56.770Z,7.03
2019-04-30T23:54:00.448Z,6.63
2019-04-30T23:57:04.450Z,6.90
